Time;durP1;ratioP1;P1;durP2;ratioP2;P2;SDS_P1;SDS_P2;PMS_P1;PMS_P2;Temp;Humidity;BMP_temperature;BMP_pressure;BME280_temperature;BME280_humidity;BME280_pressure;Samples;Min_cycle;Max_cycle;Signal;HPM_P1;HPM_P2
2022/09/09 00:02:45;;;;;;;4.20;2.70;;;23.60;60.00;;;;;;220907;1268;26027;-58
2022/09/09 00:07:53;;;;;;;3.20;2.40;;;23.60;60.00;;;;;;220895;1268;25497;-59
2022/09/09 00:13:31;;;;;;;3.10;2.40;;;23.60;60.00;;;;;;221098;1268;24405;-58
2022/09/09 00:18:47;;;;;;;2.80;2.40;;;23.60;60.10;;;;;;220580;1268;22561;-58
2022/09/09 00:23:54;;;;;;;3.10;2.30;;;23.60;60.20;;;;;;220566;1268;25293;-59
2022/09/09 00:29:22;;;;;;;3.30;2.50;;;23.60;60.50;;;;;;220688;1268;23426;-60
2022/09/09 00:34:27;;;;;;;3.90;2.90;;;23.60;60.20;;;;;;220521;1268;26637;-59
2022/09/09 00:39:48;;;;;;;3.70;2.50;;;23.50;59.60;;;;;;220890;1268;23959;-58
2022/09/09 00:45:20;;;;;;;2.80;2.40;;;23.50;60.40;;;;;;220480;1268;22522;-61
2022/09/09 00:50:49;;;;;;;3.20;2.50;;;23.60;60.20;;;;;;220770;1268;24538;-58
2022/09/09 00:56:16;;;;;;;2.70;2.20;;;23.50;60.50;;;;;;220656;1268;25242;-60
2022/09/09 01:01:20;;;;;;;3.20;2.60;;;23.50;60.20;;;;;;220836;1268;24316;-63
2022/09/09 01:06:38;;;;;;;3.00;2.30;;;23.50;60.10;;;;;;220526;1268;22526;-63
2022/09/09 01:12:15;;;;;;;3.40;2.70;;;23.50;60.20;;;;;;220610;1268;22720;-60
2022/09/09 01:17:32;;;;;;;3.60;2.60;;;23.50;60.20;;;;;;219304;1268;1556186;-61
2022/09/09 01:23:34;;;;;;;3.20;2.50;;;23.50;60.20;;;;;;220994;1265;24199;-57
2022/09/09 01:28:58;;;;;;;3.30;2.40;;;23.50;60.20;;;;;;220562;1265;22526;-59
2022/09/09 01:34:13;;;;;;;3.30;2.60;;;23.50;60.30;;;;;;221399;1265;24272;-59
2022/09/09 01:39:20;;;;;;;3.90;2.50;;;23.50;60.30;;;;;;221083;1265;25470;-59
2022/09/09 01:44:31;;;;;;;3.60;2.50;;;23.40;60.20;;;;;;220866;1265;25479;-58
2022/09/09 01:49:36;;;;;;;3.60;2.70;;;23.40;60.50;;;;;;220740;1265;22611;-59
2022/09/09 01:54:47;;;;;;;3.20;2.20;;;23.40;60.20;;;;;;220511;1265;25392;-59
2022/09/09 02:00:13;;;;;;;3.90;2.60;;;23.40;60.10;;;;;;220731;1265;24311;-58
2022/09/09 02:05:30;;;;;;;3.10;2.40;;;23.40;60.30;;;;;;220577;1265;25444;-59
2022/09/09 02:10:46;;;;;;;2.90;2.20;;;23.40;60.30;;;;;;220863;1265;22614;-59
2022/09/09 02:16:03;;;;;;;3.30;2.00;;;23.40;60.30;;;;;;220541;1265;24280;-58
2022/09/09 02:21:10;;;;;;;2.90;2.40;;;23.40;60.60;;;;;;221170;1265;23231;-59
2022/09/09 02:26:20;;;;;;;2.90;2.30;;;23.30;60.30;;;;;;220841;1265;25296;-60
2022/09/09 02:31:27;;;;;;;2.80;2.20;;;23.30;60.20;;;;;;221245;1265;22553;-60
2022/09/09 02:36:36;;;;;;;5.10;2.20;;;23.30;60.30;;;;;;220674;1268;25504;-59
2022/09/09 02:41:42;;;;;;;4.20;2.30;;;23.30;60.60;;;;;;221050;1265;22538;-58
2022/09/09 02:47:20;;;;;;;2.30;1.90;;;23.30;60.30;;;;;;221057;1265;24209;-60
2022/09/09 02:52:58;;;;;;;2.90;2.20;;;23.30;60.30;;;;;;221023;1265;22728;-60
2022/09/09 02:58:20;;;;;;;3.00;2.20;;;23.30;60.30;;;;;;220703;1265;25388;-59
2022/09/09 03:03:44;;;;;;;3.00;2.30;;;23.30;60.30;;;;;;220894;1265;24353;-61
2022/09/09 03:08:50;;;;;;;3.00;2.20;;;23.30;60.30;;;;;;220796;1265;24302;-60
2022/09/09 03:13:58;;;;;;;2.70;2.20;;;23.20;60.20;;;;;;221120;1265;22679;-60
2022/09/09 03:19:02;;;;;;;3.50;2.10;;;23.30;60.40;;;;;;221128;1265;22536;-58
2022/09/09 03:24:06;;;;;;;2.80;2.00;;;23.20;60.20;;;;;;220762;1265;25434;-58
2022/09/09 03:29:12;;;;;;;3.00;2.10;;;23.20;60.30;;;;;;221066;1265;26736;-59
2022/09/09 03:34:19;;;;;;;2.40;1.90;;;23.20;60.20;;;;;;221169;1265;22529;-59
2022/09/09 03:39:24;;;;;;;3.00;2.00;;;23.20;60.30;;;;;;220661;1268;25361;-59
2022/09/09 03:44:28;;;;;;;2.50;1.90;;;23.20;60.20;;;;;;220895;1268;22528;-59
2022/09/09 03:49:31;;;;;;;3.80;1.90;;;23.20;60.20;;;;;;220633;1265;24304;-59
2022/09/09 03:54:36;;;;;;;3.00;2.40;;;23.20;60.20;;;;;;221035;1266;22547;-58
2022/09/09 03:59:41;;;;;;;3.80;2.10;;;23.20;60.20;;;;;;221023;1265;22524;-59
2022/09/09 04:04:45;;;;;;;2.70;1.90;;;23.20;60.30;;;;;;221239;1265;22535;-58
2022/09/09 04:09:48;;;;;;;2.70;2.00;;;23.20;60.20;;;;;;221202;1265;24204;-58
2022/09/09 04:14:52;;;;;;;2.20;1.80;;;23.10;60.20;;;;;;220552;1265;23023;-59
2022/09/09 04:19:56;;;;;;;2.30;1.80;;;23.10;60.20;;;;;;221057;1265;22541;-60
2022/09/09 04:25:00;;;;;;;2.90;2.30;;;23.10;60.10;;;;;;221144;1265;22588;-60
2022/09/09 04:30:06;;;;;;;2.80;2.00;;;23.10;60.50;;;;;;220831;1265;22822;-58
2022/09/09 04:35:11;;;;;;;2.50;1.90;;;23.10;60.20;;;;;;220817;1265;22538;-60
2022/09/09 04:40:22;;;;;;;2.40;1.80;;;23.10;60.20;;;;;;221261;1265;25296;-60
2022/09/09 04:45:26;;;;;;;2.80;1.90;;;23.10;60.50;;;;;;221355;1265;22627;-61
2022/09/09 04:50:31;;;;;;;3.00;2.10;;;23.10;60.10;;;;;;221168;1265;25923;-59
2022/09/09 04:55:35;;;;;;;4.10;1.90;;;23.10;60.50;;;;;;220787;1268;22843;-59
2022/09/09 05:00:46;;;;;;;2.80;2.00;;;23.10;60.50;;;;;;220782;1268;25494;-56
2022/09/09 05:05:53;;;;;;;2.30;1.90;;;23.10;60.10;;;;;;221187;1265;25237;-58
2022/09/09 05:11:01;;;;;;;;;;;23.10;60.10;;;;;;221463;1265;22513;-59
2022/09/09 05:16:22;;;;;;;2.50;1.80;;;23.10;60.10;;;;;;220848;1265;24720;-60
2022/09/09 05:21:30;;;;;;;2.50;1.90;;;23.10;60.10;;;;;;220884;1265;24210;-59
2022/09/09 05:26:36;;;;;;;2.30;1.80;;;23.10;60.10;;;;;;221107;1265;22532;-59
2022/09/09 05:31:42;;;;;;;3.20;1.90;;;23.10;60.00;;;;;;221112;1265;22528;-59
2022/09/09 05:36:48;;;;;;;2.10;1.70;;;23.10;60.00;;;;;;221095;1265;22539;-60
2022/09/09 05:41:52;;;;;;;2.40;1.70;;;23.10;60.00;;;;;;221376;1265;24242;-59
2022/09/09 05:46:57;;;;;;;3.90;2.10;;;23.10;60.00;;;;;;220962;1265;25438;-59
2022/09/09 05:52:03;;;;;;;2.60;2.00;;;23.10;60.00;;;;;;221261;1265;24186;-61
2022/09/09 05:57:07;;;;;;;2.80;2.00;;;23.10;60.00;;;;;;221508;1265;26515;-59
2022/09/09 06:02:12;;;;;;;2.70;2.00;;;23.10;60.60;;;;;;221274;1265;22527;-58
2022/09/09 06:07:16;;;;;;;2.10;1.60;;;23.10;59.90;;;;;;221313;1265;22522;-59
2022/09/09 06:12:20;;;;;;;2.60;2.10;;;23.10;59.90;;;;;;221192;1265;24388;-59
2022/09/09 06:17:26;;;;;;;2.60;1.80;;;23.10;59.90;;;;;;221257;1265;22767;-57
2022/09/09 06:22:33;;;;;;;2.50;1.90;;;23.10;59.90;;;;;;221175;1265;22672;-59
2022/09/09 06:27:37;;;;;;;2.30;1.60;;;23.10;59.80;;;;;;221154;1265;23892;-59
2022/09/09 06:32:42;;;;;;;3.10;1.80;;;23.10;60.10;;;;;;220960;1265;24418;-59
2022/09/09 06:37:48;;;;;;;2.40;1.80;;;23.20;59.80;;;;;;221150;1265;25648;-59
2022/09/09 06:42:53;;;;;;;2.40;1.70;;;23.20;59.80;;;;;;221078;1265;22521;-60
2022/09/09 06:48:09;;;;;;;2.70;1.90;;;23.20;59.70;;;;;;221007;1265;25371;-59
2022/09/09 06:53:18;;;;;;;2.40;1.70;;;23.20;60.00;;;;;;220919;1265;26780;-59
2022/09/09 06:58:24;;;;;;;2.50;1.70;;;23.20;59.60;;;;;;220965;1266;22673;-58
2022/09/09 07:03:29;;;;;;;2.60;1.70;;;23.20;59.60;;;;;;221374;1265;22519;-58
2022/09/09 07:08:33;;;;;;;2.30;1.70;;;23.20;59.50;;;;;;221050;1265;24208;-60
2022/09/09 07:13:38;;;;;;;2.50;1.70;;;23.30;59.50;;;;;;221222;1265;24216;-60
2022/09/09 07:18:50;;;;;;;2.40;1.70;;;23.30;59.40;;;;;;220868;1265;22542;-59
2022/09/09 07:23:56;;;;;;;2.30;1.60;;;23.30;59.30;;;;;;221038;1265;25187;-57
2022/09/09 07:29:00;;;;;;;2.40;1.80;;;23.30;59.30;;;;;;221209;1265;22521;-58
2022/09/09 07:34:06;;;;;;;2.30;1.70;;;23.40;59.30;;;;;;221291;1268;22528;-56
2022/09/09 07:39:17;;;;;;;2.00;1.60;;;23.40;59.20;;;;;;221211;1265;25468;-58
2022/09/09 07:44:27;;;;;;;2.00;1.60;;;23.40;59.20;;;;;;220650;1265;24257;-58
2022/09/09 07:49:51;;;;;;;2.20;1.60;;;23.50;59.30;;;;;;221081;1265;22537;-57
2022/09/09 07:55:02;;;;;;;1.90;1.40;;;23.50;59.30;;;;;;220814;1268;22614;-60
2022/09/09 08:00:10;;;;;;;1.90;1.50;;;23.50;59.30;;;;;;221139;1265;25487;-58
2022/09/09 08:05:18;;;;;;;2.20;1.50;;;23.50;59.20;;;;;;221413;1265;24292;-58
2022/09/09 08:10:23;;;;;;;2.50;1.70;;;23.50;59.20;;;;;;221180;1265;22583;-60
2022/09/09 08:15:30;;;;;;;2.10;1.70;;;23.60;59.30;;;;;;221152;1265;22529;-59
2022/09/09 08:20:37;;;;;;;2.10;1.60;;;23.50;59.20;;;;;;220958;1265;25307;-58
2022/09/09 08:25:40;;;;;;;2.00;1.50;;;23.60;59.30;;;;;;220708;1266;22695;-59
2022/09/09 08:30:45;;;;;;;2.20;1.60;;;23.60;59.20;;;;;;220950;1265;22807;-59
2022/09/09 08:35:50;;;;;;;2.10;1.60;;;23.60;59.80;;;;;;221101;1265;25348;-60
2022/09/09 08:41:18;;;;;;;2.10;1.50;;;23.60;59.50;;;;;;220962;1265;24246;-61
2022/09/09 08:46:58;;;;;;;3.00;1.50;;;23.60;59.10;;;;;;220614;1265;22564;-60
2022/09/09 08:52:13;;;;;;;1.90;1.40;;;23.70;59.20;;;;;;220936;1265;22544;-60
2022/09/09 08:57:26;;;;;;;2.60;1.50;;;23.70;59.10;;;;;;221227;1266;22538;-63
2022/09/09 09:02:49;;;;;;;2.10;1.50;;;23.80;59.10;;;;;;221003;1265;22545;-59
2022/09/09 09:08:06;;;;;;;2.10;1.70;;;23.80;59.10;;;;;;221518;1265;22532;-60
2022/09/09 09:13:40;;;;;;;3.10;1.50;;;23.80;59.00;;;;;;220895;1266;22547;-60
2022/09/09 09:18:49;;;;;;;2.00;1.40;;;23.80;59.00;;;;;;221063;1265;25572;-60
2022/09/09 09:23:59;;;;;;;1.80;1.40;;;23.90;58.90;;;;;;220694;1265;24208;-61
2022/09/09 09:29:14;;;;;;;2.00;1.50;;;23.90;58.90;;;;;;220587;1265;25357;-59
2022/09/09 09:34:18;;;;;;;1.90;1.40;;;23.90;59.10;;;;;;220814;1265;23915;-58
2022/09/09 09:39:24;;;;;;;1.90;1.40;;;24.00;59.10;;;;;;221034;1265;22591;-62
2022/09/09 09:44:47;;;;;;;1.90;1.40;;;24.10;58.90;;;;;;220789;1268;25665;-56
2022/09/09 09:49:58;;;;;;;2.30;1.30;;;24.10;58.70;;;;;;221102;1265;22592;-59
2022/09/09 09:55:13;;;;;;;2.20;1.50;;;24.10;58.60;;;;;;220810;1265;26494;-59
2022/09/09 10:00:20;;;;;;;2.30;1.70;;;24.20;58.10;;;;;;221086;1265;24286;-61
2022/09/09 10:05:36;;;;;;;1.90;1.30;;;24.30;58.50;;;;;;221454;1265;24363;-60
2022/09/09 10:10:56;;;;;;;1.80;1.40;;;24.30;58.40;;;;;;221116;1265;22532;-61
2022/09/09 10:16:29;;;;;;;2.00;1.40;;;24.40;58.30;;;;;;221172;1265;22550;-61
2022/09/09 10:21:57;;;;;;;1.80;1.40;;;24.40;58.30;;;;;;220587;1268;23169;-60
2022/09/09 10:27:22;;;;;;;;;;;24.50;58.20;;;;;;221020;1265;26586;-60
2022/09/09 10:32:48;;;;;;;2.20;1.60;;;24.50;58.20;;;;;;221164;1266;24037;-60
2022/09/09 10:38:13;;;;;;;2.00;1.40;;;24.40;58.50;;;;;;221071;1265;25305;-60
2022/09/09 10:43:39;;;;;;;2.00;1.40;;;24.50;58.30;;;;;;220808;1265;22524;-59
2022/09/09 10:48:43;;;;;;;1.90;1.50;;;24.50;58.20;;;;;;221279;1265;24021;-60
2022/09/09 10:54:09;;;;;;;2.20;1.50;;;24.70;58.30;;;;;;220980;1268;24180;-61
2022/09/09 10:59:18;;;;;;;2.10;1.20;;;24.70;58.00;;;;;;221113;1265;22549;-61
2022/09/09 11:04:39;;;;;;;2.00;1.50;;;24.80;57.80;;;;;;221338;1265;22553;-59
2022/09/09 11:09:49;;;;;;;2.00;1.50;;;24.80;57.80;;;;;;221352;1268;22534;-61
2022/09/09 11:15:04;;;;;;;2.10;1.40;;;24.90;57.70;;;;;;220858;1265;23061;-60
2022/09/09 11:20:12;;;;;;;2.40;1.50;;;24.90;57.50;;;;;;221142;1265;23933;-60
2022/09/09 11:25:20;;;;;;;1.90;1.40;;;25.00;57.80;;;;;;221135;1265;24215;-60
2022/09/09 11:30:46;;;;;;;1.90;1.40;;;25.10;57.40;;;;;;221408;1265;24211;-60
2022/09/09 11:36:35;;;;;;;1.80;1.20;;;25.10;57.70;;;;;;221177;1265;25680;-59
2022/09/09 11:41:41;;;;;;;2.40;1.30;;;25.10;57.20;;;;;;221232;1268;22774;-60
2022/09/09 11:46:50;;;;;;;1.80;1.40;;;25.20;57.50;;;;;;221361;1265;25298;-60
2022/09/09 11:51:54;;;;;;;2.10;1.30;;;25.10;57.20;;;;;;221420;1265;22554;-63
2022/09/09 11:56:58;;;;;;;2.00;1.40;;;25.20;57.30;;;;;;221239;1265;22525;-62
2022/09/09 12:02:17;;;;;;;1.60;1.20;;;25.30;57.30;;;;;;221165;1265;25570;-58
2022/09/09 12:07:34;;;;;;;1.80;1.40;;;25.30;57.60;;;;;;221160;1265;25225;-61
2022/09/09 12:12:38;;;;;;;2.30;1.60;;;25.20;57.30;;;;;;221092;1265;22538;-60
2022/09/09 12:17:50;;;;;;;1.90;1.40;;;25.20;57.30;;;;;;221188;1265;25296;-59
2022/09/09 12:23:07;;;;;;;1.90;1.40;;;25.20;57.70;;;;;;221147;1265;22545;-61
2022/09/09 12:28:27;;;;;;;2.10;1.40;;;25.20;57.50;;;;;;221135;1265;24810;-61
2022/09/09 12:33:45;;;;;;;1.50;1.20;;;25.20;57.60;;;;;;221137;1265;25210;-60
2022/09/09 12:38:50;;;;;;;2.20;1.70;;;25.20;57.50;;;;;;221128;1265;22532;-60
2022/09/09 12:44:09;;;;;;;2.00;1.40;;;25.20;57.50;;;;;;221122;1264;25349;-59
2022/09/09 12:49:36;;;;;;;1.90;1.30;;;25.20;57.90;;;;;;221254;1265;25222;-61
2022/09/09 12:54:46;;;;;;;2.10;1.40;;;25.20;57.60;;;;;;221125;1268;25087;-61
2022/09/09 12:59:50;;;;;;;2.00;1.40;;;25.20;57.60;;;;;;220977;1265;25154;-60
2022/09/09 13:04:54;;;;;;;1.80;1.30;;;25.20;57.70;;;;;;221330;1265;24286;-61
2022/09/09 13:09:57;;;;;;;1.80;1.40;;;25.20;57.80;;;;;;221248;1265;22525;-61
2022/09/09 13:15:13;;;;;;;2.10;1.70;;;25.10;57.90;;;;;;221462;1265;24389;-60
2022/09/09 13:20:20;;;;;;;2.00;1.20;;;25.10;57.80;;;;;;220024;1265;1566592;-61
2022/09/09 13:25:28;;;;;;;1.80;1.40;;;25.20;58.20;;;;;;221122;1265;22680;-61
2022/09/09 13:30:44;;;;;;;1.50;1.10;;;25.20;57.70;;;;;;221185;1265;24351;-62
2022/09/09 13:35:58;;;;;;;1.60;1.30;;;25.20;57.60;;;;;;221529;1265;24298;-60
2022/09/09 13:41:06;;;;;;;1.70;1.20;;;25.30;57.60;;;;;;221331;1265;26484;-60
2022/09/09 13:46:21;;;;;;;1.70;1.30;;;25.30;57.20;;;;;;221026;1265;22535;-60
2022/09/09 13:51:37;;;;;;;1.70;1.20;;;25.30;57.70;;;;;;221124;1265;26524;-57
2022/09/09 13:56:42;;;;;;;2.20;1.50;;;25.40;57.70;;;;;;221509;1265;24208;-61
2022/09/09 14:01:48;;;;;;;1.60;1.10;;;25.40;57.70;;;;;;221165;1265;24207;-58
2022/09/09 14:06:52;;;;;;;1.70;1.30;;;25.40;57.60;;;;;;221125;1265;24207;-61
2022/09/09 14:11:56;;;;;;;2.40;1.40;;;25.40;57.70;;;;;;220951;1268;24265;-60
2022/09/09 14:17:03;;;;;;;2.00;1.60;;;25.40;57.70;;;;;;220828;1265;22525;-60
2022/09/09 14:22:12;;;;;;;2.20;1.40;;;25.40;57.80;;;;;;220738;1268;22482;-60
2022/09/09 14:27:16;;;;;;;1.80;1.20;;;25.40;57.80;;;;;;221147;1265;23347;-60
2022/09/09 14:32:20;;;;;;;2.30;1.20;;;25.40;57.90;;;;;;221178;1268;25381;-60
2022/09/09 14:37:24;;;;;;;2.30;1.30;;;25.30;57.80;;;;;;221047;1265;22537;-61
2022/09/09 14:42:30;;;;;;;1.70;1.10;;;25.30;57.90;;;;;;220652;1265;22534;-61
2022/09/09 14:47:33;;;;;;;3.60;1.30;;;25.30;58.00;;;;;;220784;1265;22525;-63
2022/09/09 14:52:37;;;;;;;2.10;1.10;;;25.30;58.00;;;;;;220867;1268;23903;-60
2022/09/09 14:58:09;;;;;;;1.80;1.10;;;25.30;58.30;;;;;;221141;1265;22545;-60
2022/09/09 15:03:17;;;;;;;3.50;1.50;;;25.30;58.10;;;;;;220962;1268;22547;-61
2022/09/09 15:08:24;;;;;;;2.60;1.70;;;25.30;58.10;;;;;;221093;1268;26513;-61
2022/09/09 15:13:28;;;;;;;2.10;1.20;;;25.30;58.50;;;;;;221123;1267;25308;-61
2022/09/09 15:18:32;;;;;;;3.20;1.50;;;25.30;58.50;;;;;;221001;1265;25245;-60
2022/09/09 15:23:39;;;;;;;2.30;1.30;;;25.20;58.10;;;;;;220820;1268;22545;-60
2022/09/09 15:28:47;;;;;;;2.40;1.50;;;25.20;58.10;;;;;;221141;1265;24340;-60
2022/09/09 15:34:00;;;;;;;2.70;1.30;;;25.20;58.20;;;;;;220743;1265;22532;-60
2022/09/09 15:39:08;;;;;;;2.00;1.20;;;25.10;58.10;;;;;;221045;1268;22545;-64
2022/09/09 15:44:12;;;;;;;2.70;1.60;;;25.10;58.20;;;;;;220906;1268;22541;-61
2022/09/09 15:49:18;;;;;;;2.50;1.50;;;25.10;58.20;;;;;;221237;1265;22547;-60
2022/09/09 15:54:24;;;;;;;2.30;1.20;;;25.10;58.30;;;;;;221175;1265;25311;-60
2022/09/09 15:59:29;;;;;;;2.80;1.10;;;25.10;58.70;;;;;;220553;1268;24494;-63
2022/09/09 16:04:39;;;;;;;2.80;1.60;;;25.10;58.50;;;;;;220737;1265;24215;-61
2022/09/09 16:09:44;;;;;;;2.50;1.60;;;25.10;58.50;;;;;;221299;1265;22544;-61
2022/09/09 16:14:48;;;;;;;2.50;1.40;;;25.00;58.50;;;;;;221112;1265;22540;-61
2022/09/09 16:19:54;;;;;;;2.70;1.40;;;25.00;58.50;;;;;;220813;1266;24521;-60
2022/09/09 16:24:59;;;;;;;3.00;1.40;;;25.00;58.50;;;;;;220874;1265;25235;-60
2022/09/09 16:30:07;;;;;;;2.10;1.30;;;25.00;58.60;;;;;;221029;1268;24284;-63
2022/09/09 16:35:27;;;;;;;1.90;1.30;;;25.00;58.60;;;;;;220574;1268;25480;-61
2022/09/09 16:40:48;;;;;;;2.60;1.50;;;25.00;58.60;;;;;;220816;1268;24360;-60
2022/09/09 16:45:55;;;;;;;2.20;1.30;;;24.90;58.60;;;;;;221230;1265;24308;-59
2022/09/09 16:51:23;;;;;;;2.30;1.40;;;24.90;58.60;;;;;;220799;1268;22538;-61
2022/09/09 16:56:44;;;;;;;2.40;1.20;;;24.90;58.70;;;;;;220901;1268;22708;-60
2022/09/09 17:01:52;;;;;;;2.60;1.40;;;24.90;58.60;;;;;;220657;1265;25231;-59
2022/09/09 17:07:00;;;;;;;1.60;1.20;;;24.90;58.60;;;;;;220667;1265;25560;-63
2022/09/09 17:12:16;;;;;;;2.30;1.60;;;24.90;58.60;;;;;;220840;1265;25078;-60
2022/09/09 17:17:23;;;;;;;2.10;1.40;;;24.90;59.00;;;;;;220634;1268;24218;-64
2022/09/09 17:22:34;;;;;;;;;;;24.80;58.70;;;;;;221127;1268;25377;-60
2022/09/09 17:27:47;;;;;;;1.90;1.30;;;24.80;59.30;;;;;;221036;1265;22627;-60
2022/09/09 17:32:50;;;;;;;2.50;1.50;;;24.80;58.80;;;;;;221003;1265;25235;-60
2022/09/09 17:37:54;;;;;;;3.00;1.50;;;24.80;59.00;;;;;;220926;1265;22526;-59
2022/09/09 17:43:01;;;;;;;3.40;1.50;;;24.80;59.50;;;;;;221024;1265;22554;-60
2022/09/09 17:48:07;;;;;;;2.30;1.50;;;24.80;59.30;;;;;;220919;1265;22550;-60
2022/09/09 17:53:11;;;;;;;2.20;1.40;;;24.70;59.40;;;;;;220947;1265;22557;-61
2022/09/09 17:58:15;;;;;;;2.40;1.20;;;24.70;59.50;;;;;;220941;1265;23940;-60
2022/09/09 18:03:21;;;;;;;2.80;1.60;;;24.70;59.80;;;;;;220893;1265;22522;-58
2022/09/09 18:08:31;;;;;;;2.10;1.40;;;24.70;59.40;;;;;;221037;1265;25394;-60
2022/09/09 18:13:40;;;;;;;2.70;1.50;;;24.70;59.30;;;;;;220912;1266;24558;-60
2022/09/09 18:18:45;;;;;;;2.30;1.30;;;24.70;59.60;;;;;;221001;1265;25304;-62
2022/09/09 18:24:05;;;;;;;2.40;1.50;;;24.70;58.80;;;;;;221097;1265;22547;-61
2022/09/09 18:29:14;;;;;;;3.20;1.30;;;24.60;59.30;;;;;;220679;1265;22659;-60
2022/09/09 18:34:27;;;;;;;2.80;1.60;;;24.70;59.30;;;;;;220811;1265;25295;-59
2022/09/09 18:39:52;;;;;;;2.10;1.30;;;24.70;58.90;;;;;;220749;1265;22594;-58
2022/09/09 18:45:11;;;;;;;2.70;1.50;;;24.60;59.30;;;;;;220780;1265;22696;-61
2022/09/09 18:50:26;;;;;;;2.00;1.40;;;24.60;59.30;;;;;;220980;1265;22532;-61
2022/09/09 18:55:32;;;;;;;2.00;1.20;;;24.60;59.30;;;;;;220804;1265;23183;-62
2022/09/09 19:00:38;;;;;;;2.30;1.30;;;24.60;59.30;;;;;;220848;1265;26522;-59
2022/09/09 19:05:47;;;;;;;2.20;1.50;;;24.60;59.60;;;;;;220888;1265;22541;-61
2022/09/09 19:10:53;;;;;;;1.90;1.30;;;24.60;59.30;;;;;;221078;1265;23906;-60
2022/09/09 19:16:06;;;;;;;1.70;1.20;;;24.60;59.60;;;;;;221174;1265;25441;-60
2022/09/09 19:21:20;;;;;;;3.10;1.50;;;24.60;59.20;;;;;;221180;1264;22532;-60
2022/09/09 19:26:26;;;;;;;2.50;1.40;;;24.50;59.20;;;;;;221297;1265;25356;-53
2022/09/09 19:31:29;;;;;;;2.90;1.50;;;24.50;59.20;;;;;;221142;1265;24156;-55
2022/09/09 19:36:34;;;;;;;2.80;1.30;;;24.50;59.30;;;;;;221466;1265;25219;-53
2022/09/09 19:41:42;;;;;;;2.50;1.50;;;24.50;59.30;;;;;;221469;1265;22607;-55
2022/09/09 19:46:47;;;;;;;2.50;1.30;;;24.50;59.30;;;;;;221337;1265;23045;-55
2022/09/09 19:51:51;;;;;;;2.40;1.60;;;24.50;59.30;;;;;;221234;1265;23671;-56
2022/09/09 19:56:55;;;;;;;2.00;1.40;;;24.50;59.40;;;;;;221200;1265;26521;-53
2022/09/09 20:02:03;;;;;;;2.40;1.50;;;24.50;59.10;;;;;;221106;1265;22688;-55
2022/09/09 20:07:20;;;;;;;2.80;1.40;;;24.50;59.40;;;;;;221153;1265;22551;-54
2022/09/09 20:12:24;;;;;;;2.70;1.90;;;24.50;59.40;;;;;;221223;1265;22551;-54
2022/09/09 20:17:27;;;;;;;3.30;1.40;;;24.50;59.50;;;;;;221020;1265;25347;-55
2022/09/09 20:22:31;;;;;;;7.70;1.60;;;24.50;59.50;;;;;;221297;1265;22689;-55
2022/09/09 20:27:34;;;;;;;3.40;1.40;;;24.50;59.60;;;;;;221253;1265;22587;-55
2022/09/09 20:32:38;;;;;;;2.40;1.60;;;24.50;59.60;;;;;;221337;1265;23880;-54
2022/09/09 20:37:41;;;;;;;3.40;1.70;;;24.40;59.90;;;;;;221329;1265;22717;-54
2022/09/09 20:42:47;;;;;;;3.10;1.50;;;24.40;59.60;;;;;;221147;1265;22635;-55
2022/09/09 20:47:55;;;;;;;2.10;1.40;;;24.50;59.70;;;;;;221145;1265;22556;-56
2022/09/09 20:52:58;;;;;;;3.00;1.60;;;24.40;59.70;;;;;;221494;1265;25219;-55
2022/09/09 20:58:03;;;;;;;2.50;1.60;;;24.40;59.70;;;;;;221255;1265;22547;-55
2022/09/09 21:03:06;;;;;;;2.90;1.50;;;24.40;59.70;;;;;;221041;1265;24264;-53
2022/09/09 21:08:10;;;;;;;2.30;1.50;;;24.40;59.70;;;;;;221001;1265;23640;-50
2022/09/09 21:13:13;;;;;;;2.20;1.50;;;24.40;60.10;;;;;;221539;1265;25604;-53
2022/09/09 21:18:18;;;;;;;2.50;1.60;;;24.40;60.00;;;;;;221302;1265;24207;-51
2022/09/09 21:23:22;;;;;;;2.10;1.70;;;24.40;59.70;;;;;;221389;1265;22598;-53
2022/09/09 21:28:26;;;;;;;3.10;1.60;;;24.40;60.10;;;;;;221176;1265;22540;-54
2022/09/09 21:33:31;;;;;;;2.00;1.50;;;24.30;59.70;;;;;;220968;1265;25110;-54
2022/09/09 21:38:44;;;;;;;2.00;1.30;;;24.30;59.80;;;;;;221340;1265;23070;-53
2022/09/09 21:43:53;;;;;;;2.60;1.40;;;24.40;59.90;;;;;;220893;1265;22762;-53
2022/09/09 21:48:57;;;;;;;3.50;1.80;;;24.30;60.40;;;;;;221535;1265;22544;-55
2022/09/09 21:54:01;;;;;;;3.30;1.70;;;24.30;59.90;;;;;;220493;1268;25247;-54
2022/09/09 21:59:05;;;;;;;3.70;1.50;;;24.30;59.80;;;;;;221133;1266;22533;-54
2022/09/09 22:04:09;;;;;;;2.30;1.40;;;24.30;59.80;;;;;;221478;1265;22681;-54
2022/09/09 22:09:15;;;;;;;2.10;1.40;;;24.30;59.80;;;;;;221059;1265;25462;-53
2022/09/09 22:14:19;;;;;;;1.80;1.30;;;24.30;59.70;;;;;;221431;1265;22536;-55
2022/09/09 22:19:24;;;;;;;2.10;1.50;;;24.30;59.90;;;;;;221241;1265;22553;-55
2022/09/09 22:24:28;;;;;;;2.50;1.70;;;24.30;60.00;;;;;;220879;1268;22555;-56
2022/09/09 22:29:32;;;;;;;3.30;1.50;;;24.30;60.00;;;;;;221026;1265;26474;-53
2022/09/09 22:34:37;;;;;;;2.40;1.60;;;24.30;59.60;;;;;;221033;1265;22541;-52
2022/09/09 22:39:40;;;;;;;1.90;1.30;;;24.30;60.00;;;;;;221161;1265;24144;-55
2022/09/09 22:44:44;;;;;;;2.10;1.40;;;24.30;59.90;;;;;;221541;1264;24311;-55
2022/09/09 22:49:48;;;;;;;2.10;1.50;;;24.30;60.00;;;;;;221266;1265;22688;-55
2022/09/09 22:55:00;;;;;;;4.30;1.60;;;24.30;60.00;;;;;;221297;1265;22527;-53
2022/09/09 23:00:07;;;;;;;2.50;1.40;;;24.20;60.00;;;;;;221296;1265;22544;-53
2022/09/09 23:05:18;;;;;;;2.20;1.40;;;24.30;60.00;;;;;;221410;1264;24204;-59
2022/09/09 23:10:25;;;;;;;1.80;1.30;;;24.20;60.00;;;;;;221226;1265;22530;-55
2022/09/09 23:15:30;;;;;;;2.00;1.50;;;24.20;60.00;;;;;;221406;1264;22524;-54
2022/09/09 23:20:34;;;;;;;3.30;1.40;;;24.20;60.00;;;;;;221431;1265;22543;-52
2022/09/09 23:25:38;;;;;;;2.40;1.50;;;24.20;60.00;;;;;;221014;1265;22522;-53
2022/09/09 23:30:46;;;;;;;2.20;1.40;;;24.20;60.00;;;;;;221350;1265;25449;-55
2022/09/09 23:36:07;;;;;;;3.50;1.70;;;24.10;60.00;;;;;;220796;1265;22528;-58
2022/09/09 23:41:13;;;;;;;2.10;1.40;;;24.20;60.00;;;;;;221530;1265;22520;-52
2022/09/09 23:46:19;;;;;;;1.60;1.10;;;24.20;60.00;;;;;;221372;1264;22691;-55
2022/09/09 23:51:29;;;;;;;3.40;1.40;;;24.20;60.00;;;;;;221154;1265;22658;-57
2022/09/09 23:56:39;;;;;;;2.40;1.30;;;24.20;60.00;;;;;;220718;1268;22631;-53
